Time;durP1;ratioP1;P1;durP2;ratioP2;P2;SDS_P1;SDS_P2;PMS_P1;PMS_P2;Temp;Humidity;BMP_temperature;BMP_pressure;BME280_temperature;BME280_humidity;BME280_pressure;Samples;Min_cycle;Max_cycle;Signal;HPM_P1;HPM_P2
2022/05/25 00:00:31;;;;;;;4.15;2.30;;;;;;;;;;5007157;28;20030;-73
2022/05/25 00:02:58;;;;;;;5.47;2.40;;;;;;;;;;5004378;28;20029;-74
2022/05/25 00:05:24;;;;;;;5.00;2.75;;;;;;;;;;5006649;28;20431;-73
2022/05/25 00:07:50;;;;;;;5.20;2.30;;;;;;;;;;5006797;28;20022;-74
2022/05/25 00:10:16;;;;;;;3.40;2.03;;;;;;;;;;5006190;28;20057;-72
2022/05/25 00:12:42;;;;;;;3.15;2.25;;;;;;;;;;5002560;28;20025;-73
2022/05/25 00:15:10;;;;;;;5.35;2.03;;;;;;;;;;5003145;28;20104;-74
2022/05/25 00:17:36;;;;;;;4.18;1.88;;;;;;;;;;5004269;28;20037;-73
2022/05/25 00:20:03;;;;;;;3.38;2.20;;;;;;;;;;5005635;28;20135;-74
2022/05/25 00:22:43;;;;;;;3.25;2.20;;;;;;;;;;5003683;28;20503;-74
2022/05/25 00:25:12;;;;;;;3.53;2.00;;;;;;;;;;5006354;28;20023;-74
2022/05/25 00:27:38;;;;;;;4.38;2.10;;;;;;;;;;5002244;28;20030;-73
2022/05/25 00:30:04;;;;;;;3.05;1.73;;;;;;;;;;5002430;28;20033;-73
2022/05/25 00:32:31;;;;;;;3.28;1.90;;;;;;;;;;5003494;28;20505;-74
2022/05/25 00:34:57;;;;;;;4.15;1.98;;;;;;;;;;5009430;28;20033;-73
2022/05/25 00:37:23;;;;;;;4.07;2.03;;;;;;;;;;5004410;28;20030;-74
2022/05/25 00:39:49;;;;;;;3.40;1.85;;;;;;;;;;5007016;28;20069;-74
2022/05/25 00:42:16;;;;;;;4.43;1.80;;;;;;;;;;5005480;28;20059;-74
2022/05/25 00:44:42;;;;;;;6.15;2.00;;;;;;;;;;5005910;28;20034;-74
2022/05/25 00:47:09;;;;;;;2.50;1.95;;;;;;;;;;5003496;28;20026;-74
2022/05/25 00:49:36;;;;;;;2.60;1.75;;;;;;;;;;5003048;28;20041;-74
2022/05/25 00:52:06;;;;;;;3.25;1.80;;;;;;;;;;5006709;28;20037;-74
2022/05/25 00:54:38;;;;;;;3.08;2.50;;;;;;;;;;5007154;28;20104;-75
2022/05/25 00:57:10;;;;;;;6.22;2.05;;;;;;;;;;5007729;28;20045;-75
2022/05/25 00:59:42;;;;;;;2.80;2.10;;;;;;;;;;5003217;28;20052;-75
2022/05/25 01:02:08;;;;;;;5.32;2.28;;;;;;;;;;5009376;28;20034;-74
2022/05/25 01:04:34;;;;;;;4.45;1.80;;;;;;;;;;5012896;28;20022;-74
2022/05/25 01:07:21;;;;;;;3.95;2.15;;;;;;;;;;5007116;28;20030;-74
2022/05/25 01:09:59;;;;;;;3.67;2.65;;;;;;;;;;5006569;28;20037;-74
2022/05/25 01:12:46;;;;;;;4.50;2.42;;;;;;;;;;5005866;28;20034;-73
2022/05/25 01:15:28;;;;;;;4.72;3.38;;;;;;;;;;5005300;28;20027;-74
2022/05/25 01:18:03;;;;;;;4.53;2.50;;;;;;;;;;5008591;28;20040;-73
2022/05/25 01:20:32;;;;;;;5.57;2.50;;;;;;;;;;5006487;28;20103;-74
2022/05/25 01:23:22;;;;;;;4.60;2.50;;;;;;;;;;5009256;28;20036;-74
2022/05/25 01:25:54;;;;;;;3.17;2.15;;;;;;;;;;5005248;28;20028;-74
2022/05/25 01:28:40;;;;;;;4.32;2.55;;;;;;;;;;5005371;28;20073;-73
2022/05/25 01:31:09;;;;;;;2.60;2.30;;;;;;;;;;5011513;28;20017;-74
2022/05/25 01:33:35;;;;;;;4.93;2.40;;;;;;;;;;5005300;28;20062;-74
2022/05/25 01:36:06;;;;;;;7.05;2.35;;;;;;;;;;5005086;28;20029;-74
2022/05/25 01:38:37;;;;;;;5.03;2.72;;;;;;;;;;5005367;28;20508;-72
2022/05/25 01:41:16;;;;;;;3.92;2.63;;;;;;;;;;5004001;28;20029;-74
2022/05/25 01:43:43;;;;;;;3.40;2.40;;;;;;;;;;5002232;28;20058;-74
2022/05/25 01:46:12;;;;;;;2.33;2.00;;;;;;;;;;5006968;28;20088;-74
2022/05/25 01:48:40;;;;;;;2.92;2.30;;;;;;;;;;5004799;28;20104;-74
2022/05/25 01:51:08;;;;;;;6.10;2.20;;;;;;;;;;5002049;28;20025;-74
2022/05/25 01:53:37;;;;;;;3.25;1.95;;;;;;;;;;5000321;28;20049;-73
2022/05/25 01:56:06;;;;;;;3.65;2.65;;;;;;;;;;5002401;28;20034;-74
2022/05/25 01:58:36;;;;;;;8.68;2.33;;;;;;;;;;5001809;28;20034;-73
2022/05/25 02:01:03;;;;;;;4.78;2.47;;;;;;;;;;5003118;28;20040;-73
2022/05/25 02:06:16;;;;;;;2.67;2.45;;;;;;;;;;5007687;28;20045;-73
2022/05/25 02:08:48;;;;;;;3.47;1.92;;;;;;;;;;5004585;28;20037;-74
2022/05/25 02:11:14;;;;;;;4.47;2.20;;;;;;;;;;5006261;28;20033;-75
2022/05/25 02:14:01;;;;;;;3.20;2.10;;;;;;;;;;5001994;28;20026;-74
2022/05/25 02:16:43;;;;;;;4.43;2.03;;;;;;;;;;5003430;28;20033;-74
2022/05/25 02:19:13;;;;;;;5.57;2.35;;;;;;;;;;5004689;28;20038;-74
2022/05/25 02:21:39;;;;;;;3.03;1.67;;;;;;;;;;5002445;28;20034;-74
2022/05/25 02:24:12;;;;;;;6.57;2.03;;;;;;;;;;5004840;28;20053;-74
2022/05/25 02:26:42;;;;;;;3.17;1.88;;;;;;;;;;5000394;28;20059;-74
2022/05/25 02:29:16;;;;;;;2.47;2.05;;;;;;;;;;5005619;28;20368;-74
2022/05/25 02:31:46;;;;;;;2.80;2.08;;;;;;;;;;4997223;28;20041;-74
2022/05/25 02:34:14;;;;;;;2.15;1.60;;;;;;;;;;5002117;28;20526;-74
2022/05/25 02:36:40;;;;;;;2.72;1.85;;;;;;;;;;5005248;28;20037;-74
2022/05/25 02:39:07;;;;;;;2.38;1.77;;;;;;;;;;5006531;28;20036;-74
2022/05/25 02:41:35;;;;;;;2.25;1.58;;;;;;;;;;5008853;28;20041;-74
2022/05/25 02:44:02;;;;;;;2.95;2.00;;;;;;;;;;5008630;28;20054;-75
2022/05/25 02:46:28;;;;;;;3.97;2.80;;;;;;;;;;5010089;28;20022;-76
2022/05/25 02:48:55;;;;;;;4.32;1.90;;;;;;;;;;5010114;28;20489;-75
2022/05/25 02:51:21;;;;;;;1.60;1.50;;;;;;;;;;5008172;28;20439;-75
2022/05/25 02:53:47;;;;;;;4.55;1.92;;;;;;;;;;5009012;28;20037;-75
2022/05/25 02:56:14;;;;;;;2.45;2.00;;;;;;;;;;5004409;28;20088;-75
2022/05/25 02:58:40;;;;;;;4.53;3.17;;;;;;;;;;5006835;28;20022;-75
2022/05/25 03:01:06;;;;;;;1.67;1.58;;;;;;;;;;5010877;28;20139;-75
2022/05/25 03:03:33;;;;;;;3.40;2.03;;;;;;;;;;5007256;28;20100;-75
2022/05/25 03:05:59;;;;;;;2.75;2.03;;;;;;;;;;5004678;28;20026;-75
2022/05/25 03:08:26;;;;;;;5.55;1.98;;;;;;;;;;5004882;28;20026;-75
2022/05/25 03:10:52;;;;;;;2.97;1.90;;;;;;;;;;5007925;28;20883;-75
2022/05/25 03:13:18;;;;;;;1.70;1.60;;;;;;;;;;5006230;28;20040;-76
2022/05/25 03:15:44;;;;;;;2.35;1.58;;;;;;;;;;5006952;28;20065;-76
2022/05/25 03:18:11;;;;;;;1.85;1.70;;;;;;;;;;5005620;28;20037;-75
2022/05/25 03:20:37;;;;;;;3.60;2.10;;;;;;;;;;5009640;28;20028;-75
2022/05/25 03:23:04;;;;;;;4.70;2.17;;;;;;;;;;5005114;28;20506;-75
2022/05/25 03:25:30;;;;;;;2.83;1.70;;;;;;;;;;5002690;28;20396;-75
2022/05/25 03:27:56;;;;;;;2.42;1.77;;;;;;;;;;5010143;28;20156;-75
2022/05/25 03:30:22;;;;;;;5.65;1.85;;;;;;;;;;5005539;28;20030;-76
2022/05/25 03:32:48;;;;;;;3.63;1.98;;;;;;;;;;5003074;28;20515;-74
2022/05/25 03:35:15;;;;;;;2.65;1.70;;;;;;;;;;5003578;28;20467;-74
2022/05/25 03:37:41;;;;;;;2.88;2.25;;;;;;;;;;5017722;28;20030;-75
2022/05/25 03:40:09;;;;;;;1.70;1.60;;;;;;;;;;5009864;28;20026;-76
2022/05/25 03:42:36;;;;;;;2.58;2.00;;;;;;;;;;5006519;28;20041;-74
2022/05/25 03:45:04;;;;;;;1.58;1.48;;;;;;;;;;5021809;28;20416;-75
2022/05/25 03:47:31;;;;;;;1.50;1.30;;;;;;;;;;5004645;28;20041;-74
2022/05/25 03:49:57;;;;;;;2.20;1.40;;;;;;;;;;5004093;28;20017;-75
2022/05/25 03:52:24;;;;;;;2.83;1.45;;;;;;;;;;5006324;28;20044;-74
2022/05/25 03:54:50;;;;;;;1.70;1.60;;;;;;;;;;5005038;28;20396;-74
2022/05/25 03:57:16;;;;;;;3.10;1.63;;;;;;;;;;5003399;28;20061;-74
2022/05/25 03:59:42;;;;;;;1.85;1.63;;;;;;;;;;5004307;28;20040;-75
2022/05/25 04:02:09;;;;;;;1.70;1.60;;;;;;;;;;5002820;28;20488;-73
2022/05/25 04:04:35;;;;;;;1.80;1.70;;;;;;;;;;5003493;28;20030;-74
2022/05/25 04:07:01;;;;;;;1.70;1.52;;;;;;;;;;5004734;28;20511;-74
2022/05/25 04:09:27;;;;;;;1.48;1.27;;;;;;;;;;5005600;28;20118;-75
2022/05/25 04:11:53;;;;;;;1.27;1.25;;;;;;;;;;5002603;28;20092;-74
2022/05/25 04:14:19;;;;;;;2.10;1.90;;;;;;;;;;5005797;28;20025;-75
2022/05/25 04:16:45;;;;;;;2.95;1.60;;;;;;;;;;5004105;28;20419;-74
2022/05/25 04:19:13;;;;;;;1.40;1.30;;;;;;;;;;5004280;28;20040;-74
2022/05/25 04:21:39;;;;;;;1.70;1.60;;;;;;;;;;5016309;28;20455;-74
2022/05/25 04:24:06;;;;;;;1.30;1.30;;;;;;;;;;5005217;28;20406;-74
2022/05/25 04:26:32;;;;;;;2.33;1.38;;;;;;;;;;5002677;28;20108;-74
2022/05/25 04:29:00;;;;;;;1.60;1.50;;;;;;;;;;5004966;28;20033;-74
2022/05/25 04:31:26;;;;;;;1.77;1.67;;;;;;;;;;5006644;28;20025;-74
2022/05/25 04:33:53;;;;;;;1.40;1.30;;;;;;;;;;5005815;28;20036;-74
2022/05/25 04:36:19;;;;;;;1.65;1.50;;;;;;;;;;5005028;28;20033;-74
2022/05/25 04:38:46;;;;;;;1.40;1.30;;;;;;;;;;5020276;28;20495;-75
2022/05/25 04:41:12;;;;;;;3.28;1.58;;;;;;;;;;5004298;28;20548;-74
2022/05/25 04:43:38;;;;;;;1.63;1.38;;;;;;;;;;5002708;28;20540;-73
2022/05/25 04:46:08;;;;;;;1.73;1.63;;;;;;;;;;5004341;28;20022;-75
2022/05/25 04:48:34;;;;;;;1.60;1.50;;;;;;;;;;5000119;28;20029;-74
2022/05/25 04:51:00;;;;;;;1.50;1.40;;;;;;;;;;5000809;28;20148;-74
2022/05/25 04:53:27;;;;;;;1.48;1.38;;;;;;;;;;5000421;28;20026;-73
2022/05/25 04:58:39;;;;;;;1.50;1.33;;;;;;;;;;5001687;28;20057;-74
2022/05/25 05:01:06;;;;;;;1.52;1.42;;;;;;;;;;5002892;28;20117;-74
2022/05/25 05:03:33;;;;;;;2.60;1.52;;;;;;;;;;5004284;28;20041;-74
2022/05/25 05:05:59;;;;;;;1.42;1.33;;;;;;;;;;5006560;28;20030;-75
2022/05/25 05:08:26;;;;;;;1.63;1.40;;;;;;;;;;5005352;28;20058;-75
2022/05/25 05:10:52;;;;;;;1.70;1.45;;;;;;;;;;5004068;28;20476;-76
2022/05/25 05:13:19;;;;;;;1.95;1.42;;;;;;;;;;5004913;28;20026;-74
2022/05/25 05:15:48;;;;;;;1.52;1.33;;;;;;;;;;5005907;28;20044;-75
2022/05/25 05:18:15;;;;;;;1.48;1.38;;;;;;;;;;5020063;28;20133;-74
2022/05/25 05:20:41;;;;;;;1.58;1.48;;;;;;;;;;5002995;28;20055;-76
2022/05/25 05:23:07;;;;;;;1.75;1.52;;;;;;;;;;5004214;28;20034;-75
2022/05/25 05:25:34;;;;;;;1.35;1.27;;;;;;;;;;5005023;28;20025;-74
2022/05/25 05:28:04;;;;;;;1.38;1.27;;;;;;;;;;5004926;28;20113;-74
2022/05/25 05:30:32;;;;;;;1.30;1.20;;;;;;;;;;5007003;28;20063;-75
2022/05/25 05:32:58;;;;;;;1.48;1.38;;;;;;;;;;5004275;28;20026;-74
2022/05/25 05:35:26;;;;;;;1.48;1.38;;;;;;;;;;5005449;28;20108;-74
2022/05/25 05:37:54;;;;;;;1.80;1.30;;;;;;;;;;5003807;28;20027;-74
2022/05/25 05:40:21;;;;;;;1.30;1.20;;;;;;;;;;5003804;28;20591;-75
2022/05/25 05:42:48;;;;;;;1.33;1.23;;;;;;;;;;5005159;28;20044;-74
2022/05/25 05:45:17;;;;;;;1.10;1.10;;;;;;;;;;5000007;28;20045;-73
2022/05/25 05:48:06;;;;;;;1.30;1.02;;;;;;;;;;5004820;28;20067;-74
2022/05/25 05:50:33;;;;;;;1.25;1.15;;;;;;;;;;5002287;28;20030;-73
2022/05/25 05:52:59;;;;;;;0.90;0.90;;;;;;;;;;4999873;28;20573;-75
2022/05/25 05:55:25;;;;;;;1.00;1.00;;;;;;;;;;5002962;28;20053;-74
2022/05/25 05:57:51;;;;;;;1.02;0.95;;;;;;;;;;5018289;28;20033;-75
2022/05/25 06:00:18;;;;;;;1.00;1.00;;;;;;;;;;5001455;28;20116;-74
2022/05/25 06:02:44;;;;;;;1.30;1.20;;;;;;;;;;5004422;28;20084;-74
2022/05/25 06:05:11;;;;;;;1.27;1.17;;;;;;;;;;5005541;28;20030;-74
2022/05/25 06:07:37;;;;;;;1.70;1.20;;;;;;;;;;5002055;28;20492;-75
2022/05/25 06:10:04;;;;;;;4.80;1.25;;;;;;;;;;5002525;28;20021;-74
2022/05/25 06:12:32;;;;;;;1.73;1.63;;;;;;;;;;5001418;28;20441;-73
2022/05/25 06:14:58;;;;;;;1.40;1.30;;;;;;;;;;5005130;28;20132;-74
2022/05/25 06:20:09;;;;;;;3.33;1.67;;;;;;;;;;5004201;28;20558;-73
2022/05/25 06:22:36;;;;;;;2.20;1.30;;;;;;;;;;5004281;28;20029;-74
2022/05/25 06:25:03;;;;;;;2.55;1.30;;;;;;;;;;5006497;28;20034;-74
2022/05/25 06:27:29;;;;;;;3.63;1.60;;;;;;;;;;5001474;28;20515;-73
2022/05/25 06:29:56;;;;;;;3.40;1.67;;;;;;;;;;5003915;28;20044;-74
2022/05/25 06:32:23;;;;;;;2.90;2.20;;;;;;;;;;5005306;28;20554;-75
2022/05/25 06:34:49;;;;;;;4.53;1.80;;;;;;;;;;5006299;28;20116;-74
2022/05/25 06:37:23;;;;;;;7.65;2.00;;;;;;;;;;5008983;28;20030;-75
2022/05/25 06:39:49;;;;;;;4.30;1.77;;;;;;;;;;5007071;28;20038;-75
2022/05/25 06:42:15;;;;;;;4.80;1.77;;;;;;;;;;5007345;28;20516;-74
2022/05/25 06:44:44;;;;;;;7.80;2.25;;;;;;;;;;5004177;28;20684;-74
2022/05/25 06:47:11;;;;;;;4.60;2.15;;;;;;;;;;5003164;28;20030;-74
2022/05/25 06:49:37;;;;;;;4.95;1.98;;;;;;;;;;5007944;28;20391;-73
2022/05/25 06:52:03;;;;;;;3.90;1.95;;;;;;;;;;5004231;28;20034;-74
2022/05/25 06:54:29;;;;;;;3.85;2.00;;;;;;;;;;5002499;28;20060;-74
2022/05/25 06:56:55;;;;;;;5.00;2.13;;;;;;;;;;5002079;28;20579;-75
2022/05/25 06:59:21;;;;;;;5.95;2.17;;;;;;;;;;5007695;28;20486;-75
2022/05/25 07:01:47;;;;;;;2.92;1.85;;;;;;;;;;5004871;28;20030;-75
2022/05/25 07:04:13;;;;;;;5.47;2.15;;;;;;;;;;5012799;28;20022;-74
2022/05/25 07:06:40;;;;;;;4.57;1.80;;;;;;;;;;5005759;28;20023;-75
2022/05/25 07:09:07;;;;;;;3.25;1.85;;;;;;;;;;5004922;28;20471;-75
2022/05/25 07:11:33;;;;;;;5.78;2.00;;;;;;;;;;5001881;28;20554;-74
2022/05/25 07:14:00;;;;;;;3.88;1.90;;;;;;;;;;5009943;28;20053;-74
2022/05/25 07:16:26;;;;;;;6.82;2.13;;;;;;;;;;5007058;28;20057;-75
2022/05/25 07:18:52;;;;;;;6.20;1.70;;;;;;;;;;5005787;28;20026;-75
2022/05/25 07:21:25;;;;;;;3.15;1.42;;;;;;;;;;4998863;28;20021;-75
2022/05/25 07:23:52;;;;;;;4.18;1.80;;;;;;;;;;5004517;28;20026;-76
2022/05/25 07:26:18;;;;;;;3.70;1.77;;;;;;;;;;5003034;28;20606;-75
2022/05/25 07:28:46;;;;;;;4.65;2.10;;;;;;;;;;5005930;28;20088;-76
2022/05/25 07:31:21;;;;;;;3.75;1.80;;;;;;;;;;4999786;28;20017;-77
2022/05/25 07:33:49;;;;;;;4.65;2.08;;;;;;;;;;5002559;28;20398;-75
2022/05/25 07:36:15;;;;;;;2.80;1.70;;;;;;;;;;5003381;28;20067;-74
2022/05/25 07:38:45;;;;;;;1.80;1.60;;;;;;;;;;5006000;28;20209;-75
2022/05/25 07:41:11;;;;;;;2.13;1.60;;;;;;;;;;5003920;28;20034;-75
2022/05/25 07:43:40;;;;;;;2.83;1.75;;;;;;;;;;5000095;28;20063;-76
2022/05/25 07:46:06;;;;;;;2.78;2.20;;;;;;;;;;5001523;28;20046;-76
2022/05/25 07:48:32;;;;;;;6.68;2.25;;;;;;;;;;5002848;28;20033;-76
2022/05/25 07:50:59;;;;;;;3.17;1.80;;;;;;;;;;5003271;28;20109;-76
2022/05/25 07:56:10;;;;;;;4.10;1.77;;;;;;;;;;5004356;28;20073;-76
2022/05/25 07:58:36;;;;;;;3.13;1.88;;;;;;;;;;5003559;28;20482;-76
2022/05/25 08:01:06;;;;;;;4.97;2.00;;;;;;;;;;5007874;28;20033;-77
2022/05/25 08:06:17;;;;;;;4.95;2.05;;;;;;;;;;5003210;28;20120;-77
2022/05/25 08:08:44;;;;;;;4.38;1.98;;;;;;;;;;5002079;28;20029;-76
2022/05/25 08:11:11;;;;;;;6.95;2.42;;;;;;;;;;4995209;28;20025;-76
2022/05/25 08:13:39;;;;;;;6.20;2.45;;;;;;;;;;4996331;28;20056;-77
2022/05/25 08:16:05;;;;;;;5.68;3.60;;;;;;;;;;5009511;28;20069;-77
2022/05/25 08:18:32;;;;;;;6.25;2.35;;;;;;;;;;4999063;28;20291;-75
2022/05/25 08:20:58;;;;;;;2.83;1.85;;;;;;;;;;4998610;28;20034;-76
2022/05/25 08:23:24;;;;;;;2.65;1.80;;;;;;;;;;5000139;28;20088;-77
2022/05/25 08:25:50;;;;;;;6.55;1.92;;;;;;;;;;5000945;28;20492;-76
2022/05/25 08:28:16;;;;;;;3.90;2.30;;;;;;;;;;5004798;28;20040;-77
2022/05/25 08:30:44;;;;;;;4.55;2.10;;;;;;;;;;5012532;28;20014;-77
2022/05/25 08:33:11;;;;;;;5.85;2.72;;;;;;;;;;5009433;28;20032;-76
2022/05/25 08:35:37;;;;;;;4.57;1.90;;;;;;;;;;5006288;28;20034;-76
2022/05/25 08:38:05;;;;;;;1.70;1.60;;;;;;;;;;5006617;28;20040;-77
2022/05/25 08:40:32;;;;;;;2.40;1.80;;;;;;;;;;5023110;28;20030;-76
2022/05/25 08:43:08;;;;;;;5.72;2.08;;;;;;;;;;5008628;28;20025;-76
2022/05/25 08:45:39;;;;;;;5.40;1.90;;;;;;;;;;5015649;28;20054;-76
2022/05/25 08:48:05;;;;;;;3.88;1.80;;;;;;;;;;5017215;28;20045;-76
2022/05/25 08:50:32;;;;;;;2.90;2.10;;;;;;;;;;5009162;28;20041;-76
2022/05/25 08:52:59;;;;;;;3.42;1.85;;;;;;;;;;5007874;28;20415;-77
2022/05/25 08:55:49;;;;;;;4.05;1.85;;;;;;;;;;5006048;28;20061;-77
2022/05/25 08:58:15;;;;;;;3.67;1.80;;;;;;;;;;4992817;28;20072;-77
2022/05/25 09:00:44;;;;;;;4.78;2.20;;;;;;;;;;4995404;28;20030;-76
2022/05/25 09:03:29;;;;;;;2.78;1.75;;;;;;;;;;4993945;28;20029;-75
2022/05/25 09:05:55;;;;;;;3.97;2.00;;;;;;;;;;5001805;28;20029;-76
2022/05/25 09:08:26;;;;;;;3.75;1.50;;;;;;;;;;4998903;28;20468;-73
2022/05/25 09:10:55;;;;;;;4.10;1.58;;;;;;;;;;4996722;28;20083;-73
2022/05/25 09:13:47;;;;;;;1.90;1.60;;;;;;;;;;4998975;28;20044;-72
2022/05/25 09:16:17;;;;;;;2.40;1.65;;;;;;;;;;4987484;28;20057;-73
2022/05/25 09:19:03;;;;;;;4.93;1.98;;;;;;;;;;4992014;28;20046;-74
2022/05/25 09:21:56;;;;;;;5.60;2.30;;;;;;;;;;4988557;28;20037;-76
2022/05/25 09:24:23;;;;;;;3.60;1.92;;;;;;;;;;4999292;28;20069;-78
2022/05/25 09:26:50;;;;;;;2.35;1.70;;;;;;;;;;5003724;28;20026;-79
2022/05/25 09:29:16;;;;;;;4.32;1.83;;;;;;;;;;5004935;28;20037;-79
2022/05/25 09:32:01;;;;;;;3.35;1.83;;;;;;;;;;5005331;28;20047;-80
2022/05/25 09:34:45;;;;;;;2.90;1.80;;;;;;;;;;5010858;28;20072;-79
2022/05/25 09:37:30;;;;;;;2.65;1.65;;;;;;;;;;5009541;28;20083;-78
2022/05/25 09:39:56;;;;;;;1.63;1.50;;;;;;;;;;5008536;28;20042;-78
2022/05/25 09:42:22;;;;;;;4.80;2.08;;;;;;;;;;5011302;28;20040;-79
2022/05/25 09:44:52;;;;;;;4.28;2.22;;;;;;;;;;5014254;28;20041;-78
2022/05/25 09:47:21;;;;;;;4.10;1.80;;;;;;;;;;5013848;28;20030;-77
2022/05/25 09:49:48;;;;;;;5.57;2.30;;;;;;;;;;5014763;28;20030;-77
2022/05/25 09:52:35;;;;;;;4.00;1.85;;;;;;;;;;5016877;28;20126;-77
2022/05/25 09:55:10;;;;;;;3.55;1.90;;;;;;;;;;5016874;28;20026;-79
2022/05/25 09:57:43;;;;;;;3.65;1.73;;;;;;;;;;5017259;28;20061;-78
2022/05/25 10:00:09;;;;;;;3.97;1.85;;;;;;;;;;5012218;28;20042;-79
2022/05/25 10:02:52;;;;;;;2.90;1.70;;;;;;;;;;5009982;28;20033;-78
2022/05/25 10:05:25;;;;;;;1.48;1.38;;;;;;;;;;5011734;28;20038;-77
2022/05/25 10:08:03;;;;;;;3.22;1.60;;;;;;;;;;5008564;28;20562;-77
2022/05/25 10:10:32;;;;;;;3.00;1.50;;;;;;;;;;5007738;28;20049;-77
2022/05/25 10:12:59;;;;;;;4.25;1.60;;;;;;;;;;5006561;28;20037;-76
2022/05/25 10:15:35;;;;;;;2.20;1.60;;;;;;;;;;5005151;28;20044;-76
2022/05/25 10:18:03;;;;;;;6.10;1.80;;;;;;;;;;4998824;28;20108;-76
2022/05/25 10:20:41;;;;;;;6.28;2.25;;;;;;;;;;4997737;28;20094;-75
2022/05/25 10:23:10;;;;;;;71.82;10.80;;;;;;;;;;5000202;28;20584;-76
2022/05/25 10:25:48;;;;;;;9.25;2.80;;;;;;;;;;5001319;28;20599;-78
2022/05/25 10:28:20;;;;;;;41.53;7.97;;;;;;;;;;4998490;28;20029;-74
2022/05/25 10:36:47;;;;;;;1.60;1.30;;;;;;;;;;5003152;28;20133;-76
2022/05/25 10:39:15;;;;;;;3.83;1.85;;;;;;;;;;5008123;28;20026;-78
2022/05/25 10:41:43;;;;;;;3.88;1.35;;;;;;;;;;4999226;28;20064;-77
2022/05/25 10:44:12;;;;;;;2.10;1.50;;;;;;;;;;5003074;28;20037;-78
2022/05/25 10:46:40;;;;;;;3.28;2.03;;;;;;;;;;5005930;28;20062;-75
2022/05/25 10:49:19;;;;;;;3.67;1.40;;;;;;;;;;5011537;28;20026;-75
2022/05/25 10:51:49;;;;;;;2.45;1.40;;;;;;;;;;5009021;28;20028;-76
2022/05/25 10:54:45;;;;;;;3.28;2.00;;;;;;;;;;5008267;28;20049;-77
2022/05/25 10:57:26;;;;;;;1.27;1.17;;;;;;;;;;5010721;28;20046;-77
2022/05/25 11:00:05;;;;;;;3.15;1.38;;;;;;;;;;5010598;28;20026;-76
2022/05/25 11:02:54;;;;;;;4.00;1.30;;;;;;;;;;5008749;28;20492;-77
2022/05/25 11:05:40;;;;;;;4.35;1.80;;;;;;;;;;5007750;28;20034;-74
2022/05/25 11:08:25;;;;;;;3.42;1.73;;;;;;;;;;5005335;28;20041;-74
2022/05/25 11:10:52;;;;;;;;;;;;;;;;;;5002901;28;20534;-74
2022/05/25 11:13:20;;;;;;;1.65;1.55;;;;;;;;;;5005621;28;19921;-72
2022/05/25 11:15:59;;;;;;;2.40;1.35;;;;;;;;;;5007684;28;20480;-74
2022/05/25 11:18:46;;;;;;;4.00;1.52;;;;;;;;;;5009672;28;20373;-74
2022/05/25 11:21:27;;;;;;;1.40;1.30;;;;;;;;;;5003048;28;20037;-73
2022/05/25 11:24:13;;;;;;;2.38;1.60;;;;;;;;;;5003863;28;20076;-74
2022/05/25 11:26:51;;;;;;;1.67;1.50;;;;;;;;;;5013740;28;20018;-73
2022/05/25 11:29:25;;;;;;;3.55;1.67;;;;;;;;;;4997696;28;20026;-73
2022/05/25 11:32:03;;;;;;;1.38;1.30;;;;;;;;;;5011880;28;20097;-74
2022/05/25 11:34:32;;;;;;;2.03;1.92;;;;;;;;;;5008490;28;20101;-77
2022/05/25 11:37:16;;;;;;;1.42;1.33;;;;;;;;;;5004183;28;20030;-75
2022/05/25 11:39:48;;;;;;;2.53;1.60;;;;;;;;;;5027567;28;20026;-74
2022/05/25 11:42:30;;;;;;;2.83;1.40;;;;;;;;;;5000698;28;20038;-76
2022/05/25 11:44:57;;;;;;;2.22;1.70;;;;;;;;;;5001113;28;20460;-74
2022/05/25 11:47:26;;;;;;;1.10;1.10;;;;;;;;;;5001576;28;20106;-75
2022/05/25 11:50:15;;;;;;;1.60;1.25;;;;;;;;;;5020367;28;20034;-74
2022/05/25 11:52:41;;;;;;;5.18;1.75;;;;;;;;;;5004860;28;20046;-74
2022/05/25 11:55:40;;;;;;;1.38;1.30;;;;;;;;;;5007457;28;20490;-74
2022/05/25 11:58:12;;;;;;;2.05;1.25;;;;;;;;;;5008590;28;20411;-74
2022/05/25 12:00:41;;;;;;;2.47;1.40;;;;;;;;;;5006363;28;20080;-74
2022/05/25 12:03:22;;;;;;;3.38;2.00;;;;;;;;;;5005809;28;20037;-74
2022/05/25 12:06:04;;;;;;;2.95;1.85;;;;;;;;;;5007646;28;20022;-74
2022/05/25 12:08:44;;;;;;;2.08;1.30;;;;;;;;;;5008292;28;20488;-75
2022/05/25 12:11:10;;;;;;;2.70;1.50;;;;;;;;;;5008405;28;20026;-74
2022/05/25 12:13:40;;;;;;;5.32;1.50;;;;;;;;;;5007500;28;20084;-74
2022/05/25 12:16:13;;;;;;;2.95;1.33;;;;;;;;;;5014958;28;20471;-74
2022/05/25 12:19:02;;;;;;;2.33;1.48;;;;;;;;;;5008444;28;20030;-74
2022/05/25 12:21:32;;;;;;;1.08;1.08;;;;;;;;;;5000826;28;20046;-74
2022/05/25 12:24:01;;;;;;;2.55;1.40;;;;;;;;;;5000091;28;20089;-75
2022/05/25 12:26:30;;;;;;;1.35;1.23;;;;;;;;;;5002589;28;20038;-75
2022/05/25 12:29:03;;;;;;;2.50;1.50;;;;;;;;;;5001395;28;20160;-75
2022/05/25 12:31:30;;;;;;;3.22;1.48;;;;;;;;;;5001736;28;20030;-74
2022/05/25 12:33:57;;;;;;;2.03;1.60;;;;;;;;;;4995670;28;20596;-76
2022/05/25 12:36:23;;;;;;;1.10;1.10;;;;;;;;;;4998667;28;20076;-76
2022/05/25 12:38:49;;;;;;;2.70;1.40;;;;;;;;;;5006084;28;20502;-74
2022/05/25 12:41:23;;;;;;;1.45;1.20;;;;;;;;;;4998261;28;20033;-75
2022/05/25 12:43:51;;;;;;;2.83;1.40;;;;;;;;;;5000358;28;20353;-76
2022/05/25 12:49:08;;;;;;;2.88;1.30;;;;;;;;;;5000035;28;20127;-74
2022/05/25 12:51:39;;;;;;;4.68;1.60;;;;;;;;;;4998354;28;20018;-75
2022/05/25 12:54:26;;;;;;;3.45;1.38;;;;;;;;;;5001133;28;20056;-75
2022/05/25 12:56:53;;;;;;;1.63;1.30;;;;;;;;;;4998359;28;20042;-75
2022/05/25 12:59:35;;;;;;;2.28;1.55;;;;;;;;;;4994830;28;20022;-75
2022/05/25 13:02:22;;;;;;;5.53;1.70;;;;;;;;;;4997320;28;20833;-75
2022/05/25 13:04:48;;;;;;;2.58;1.60;;;;;;;;;;4998352;28;20018;-76
2022/05/25 13:07:45;;;;;;;3.53;2.00;;;;;;;;;;5007360;28;20029;-75
2022/05/25 13:10:29;;;;;;;1.85;1.60;;;;;;;;;;4997670;28;20034;-74
2022/05/25 13:12:56;;;;;;;2.20;1.70;;;;;;;;;;5004672;28;20128;-75
2022/05/25 13:15:22;;;;;;;2.00;1.60;;;;;;;;;;5000480;28;20097;-74
2022/05/25 13:17:55;;;;;;;2.22;1.30;;;;;;;;;;5002635;28;20486;-75
2022/05/25 13:20:27;;;;;;;1.80;1.38;;;;;;;;;;5000838;28;20091;-75
2022/05/25 13:22:58;;;;;;;4.40;1.50;;;;;;;;;;5000240;28;20100;-75
2022/05/25 13:25:39;;;;;;;3.35;1.42;;;;;;;;;;4997311;28;20026;-76
2022/05/25 13:28:22;;;;;;;3.63;1.83;;;;;;;;;;5001464;28;20021;-76
2022/05/25 13:30:56;;;;;;;2.72;1.25;;;;;;;;;;5001744;28;20101;-75
2022/05/25 13:33:30;;;;;;;2.97;1.47;;;;;;;;;;5000428;28;20041;-75
2022/05/25 13:36:05;;;;;;;2.70;1.70;;;;;;;;;;4999340;28;20310;-75
2022/05/25 13:38:31;;;;;;;;;;;;;;;;;;4995875;28;20484;-76
2022/05/25 13:41:15;;;;;;;3.28;1.80;;;;;;;;;;5000741;28;19913;-75
2022/05/25 13:43:45;;;;;;;2.27;1.50;;;;;;;;;;4996502;28;20057;-75
2022/05/25 13:46:13;;;;;;;2.58;1.55;;;;;;;;;;5004023;28;20029;-75
2022/05/25 13:48:51;;;;;;;4.72;1.50;;;;;;;;;;4999017;28;20304;-75
2022/05/25 13:51:19;;;;;;;4.40;2.10;;;;;;;;;;5007878;28;20030;-75
2022/05/25 13:53:46;;;;;;;2.08;1.75;;;;;;;;;;5000894;28;20044;-75
2022/05/25 13:56:13;;;;;;;2.47;1.40;;;;;;;;;;5001334;28;20030;-77
2022/05/25 13:58:47;;;;;;;2.38;1.30;;;;;;;;;;5001043;28;20034;-76
2022/05/25 14:01:15;;;;;;;3.95;1.63;;;;;;;;;;5005420;28;20057;-76
2022/05/25 14:03:45;;;;;;;3.10;1.80;;;;;;;;;;4994818;28;20027;-76
2022/05/25 14:06:14;;;;;;;2.08;1.88;;;;;;;;;;5002936;28;20030;-75
2022/05/25 14:11:33;;;;;;;2.63;1.40;;;;;;;;;;5000990;28;20145;-75
2022/05/25 14:14:00;;;;;;;4.38;1.52;;;;;;;;;;4999051;28;20015;-76
2022/05/25 14:16:27;;;;;;;1.70;1.60;;;;;;;;;;4997264;28;20034;-75
2022/05/25 14:18:54;;;;;;;2.55;1.58;;;;;;;;;;5008682;28;20025;-75
2022/05/25 14:21:40;;;;;;;2.10;1.67;;;;;;;;;;5000153;28;20026;-75
2022/05/25 14:24:14;;;;;;;2.72;1.52;;;;;;;;;;4996415;28;20077;-75
2022/05/25 14:26:45;;;;;;;1.90;1.60;;;;;;;;;;5000004;28;20034;-76
2022/05/25 14:29:13;;;;;;;2.72;1.70;;;;;;;;;;5001962;28;20553;-76
2022/05/25 14:31:41;;;;;;;3.10;1.50;;;;;;;;;;5000609;28;20214;-77
2022/05/25 14:34:08;;;;;;;2.03;1.80;;;;;;;;;;4997395;28;20478;-76
2022/05/25 14:36:34;;;;;;;3.05;1.40;;;;;;;;;;5004475;28;20087;-75
2022/05/25 14:39:00;;;;;;;2.78;1.38;;;;;;;;;;5005342;28;20014;-75
2022/05/25 14:41:33;;;;;;;3.92;2.20;;;;;;;;;;5008802;28;20034;-75
2022/05/25 14:43:59;;;;;;;3.05;1.48;;;;;;;;;;4997652;28;20492;-76
2022/05/25 14:46:25;;;;;;;3.55;2.10;;;;;;;;;;4995744;28;20030;-76
2022/05/25 14:48:53;;;;;;;3.75;1.50;;;;;;;;;;5010690;28;20022;-75
2022/05/25 14:51:20;;;;;;;1.73;1.20;;;;;;;;;;5003855;28;20034;-76
2022/05/25 14:53:47;;;;;;;3.03;1.70;;;;;;;;;;4999289;28;20045;-76
2022/05/25 14:56:21;;;;;;;2.08;1.40;;;;;;;;;;5004732;28;20033;-75
2022/05/25 14:58:51;;;;;;;1.70;1.58;;;;;;;;;;5014898;28;20029;-73
2022/05/25 15:01:23;;;;;;;1.77;1.10;;;;;;;;;;5008359;28;20085;-74
2022/05/25 15:03:51;;;;;;;1.83;1.25;;;;;;;;;;5005969;28;20026;-74
2022/05/25 15:06:22;;;;;;;2.47;1.65;;;;;;;;;;5008165;28;20075;-74
2022/05/25 15:08:54;;;;;;;1.48;1.20;;;;;;;;;;5003425;28;20070;-74
2022/05/25 15:11:33;;;;;;;1.88;1.63;;;;;;;;;;5015421;28;20022;-75
2022/05/25 15:19:47;;;;;;;1.05;1.05;;;;;;;;;;5008363;28;20097;-77
2022/05/25 15:22:17;;;;;;;1.80;1.30;;;;;;;;;;5005718;28;20034;-76
2022/05/25 15:24:53;;;;;;;3.50;1.58;;;;;;;;;;4998888;28;20623;-75
2022/05/25 15:27:23;;;;;;;3.75;1.65;;;;;;;;;;5000221;28;20602;-75
2022/05/25 15:29:54;;;;;;;2.15;1.45;;;;;;;;;;4998662;28;20095;-75
2022/05/25 15:32:20;;;;;;;1.95;1.35;;;;;;;;;;5002030;28;20025;-75